LOT2305 EPGD-ENGM
Flight info
| Callsign | LOT2305 |
|---|---|
| Flight time | 1h 17m |
| Altitude | 34000 |
| Route | VAPOS N133 PENOR DCT KSD Z259 ESEBA |
| Aircraft | B38M/M-SDE1FGHILORVWXY/HB1 |
Departure
| Time | 2026-05-06 12:00 |
|---|---|
| Airport | Gdańsk Lech Wałęsa Airport (EPGD) |
Arrival
| Time | 2026-05-06 13:17 |
|---|---|
| Airport | Oslo-Gardermoen International Airport (ENGM) |
| Time | Latitude | Longitude | Altitude | Speed | Heading |
|---|---|---|---|---|---|
| 2026-05-06 11:24 | 54.38114 | 18.46618 | 462 ft | 0 kts | 23° |
| 2026-05-06 11:51 | 54.38094 | 18.46603 | 461 ft | 4 kts | 23° |
| 2026-05-06 11:52 | 54.38076 | 18.46593 | 459 ft | 4 kts | 346° |
| 2026-05-06 11:52 | 54.38061 | 18.46613 | 459 ft | 3 kts | 338° |
| 2026-05-06 11:52 | 54.38044 | 18.46620 | 462 ft | 4 kts | 16° |
| 2026-05-06 11:52 | 54.38023 | 18.46606 | 461 ft | 4 kts | 23° |
| 2026-05-06 11:53 | 54.38000 | 18.46590 | 462 ft | 2 kts | 23° |
| 2026-05-06 11:53 | 54.37999 | 18.46589 | 462 ft | 0 kts | 23° |
| 2026-05-06 11:54 | 54.38000 | 18.46590 | 462 ft | 1 kts | 23° |
| 2026-05-06 11:55 | 54.38011 | 18.46598 | 462 ft | 4 kts | 24° |
| 2026-05-06 11:55 | 54.38058 | 18.46620 | 462 ft | 6 kts | 345° |
| 2026-05-06 11:55 | 54.38073 | 18.46588 | 462 ft | 6 kts | 297° |
| 2026-05-06 11:55 | 54.38106 | 18.46457 | 462 ft | 18 kts | 293° |
| 2026-05-06 11:56 | 54.38162 | 18.46230 | 462 ft | 21 kts | 292° |
| 2026-05-06 11:56 | 54.38178 | 18.46131 | 462 ft | 6 kts | 265° |
| 2026-05-06 11:56 | 54.38177 | 18.46122 | 462 ft | 3 kts | 250° |
| 2026-05-06 11:56 | 54.38171 | 18.46111 | 462 ft | 1 kts | 222° |
| 2026-05-06 11:57 | 54.38129 | 18.46077 | 462 ft | 12 kts | 204° |
| 2026-05-06 11:57 | 54.38090 | 18.46019 | 462 ft | 4 kts | 269° |
| 2026-05-06 11:57 | 54.38110 | 18.45921 | 460 ft | 14 kts | 292° |
| 2026-05-06 11:57 | 54.38153 | 18.45738 | 457 ft | 12 kts | 283° |
| 2026-05-06 11:58 | 54.38131 | 18.45655 | 457 ft | 8 kts | 217° |
| 2026-05-06 11:58 | 54.38112 | 18.45638 | 457 ft | 0 kts | 201° |
| 2026-05-06 11:58 | 54.38112 | 18.45637 | 457 ft | 0 kts | 201° |
| 2026-05-06 11:59 | 54.38080 | 18.45615 | 457 ft | 12 kts | 203° |
| 2026-05-06 11:59 | 54.38014 | 18.45587 | 458 ft | 2 kts | 147° |
| 2026-05-06 11:59 | 54.38010 | 18.45603 | 457 ft | 5 kts | 115° |
| 2026-05-06 11:59 | 54.37939 | 18.45898 | 459 ft | 65 kts | 113° |
| 2026-05-06 12:00 | 54.37653 | 18.47048 | 459 ft | 141 kts | 114° |
| 2026-05-06 12:00 | 54.37219 | 18.48861 | 832 ft | 177 kts | 105° |
| 2026-05-06 12:00 | 54.36733 | 18.50930 | 1758 ft | 191 kts | 107° |
| 2026-05-06 12:00 | 54.36228 | 18.53011 | 2775 ft | 198 kts | 113° |
| 2026-05-06 12:01 | 54.35650 | 18.55254 | 3392 ft | 214 kts | 115° |
| 2026-05-06 12:01 | 54.35051 | 18.57598 | 4379 ft | 214 kts | 118° |
| 2026-05-06 12:01 | 54.34434 | 18.60017 | 5145 ft | 228 kts | 120° |
| 2026-05-06 12:01 | 54.33813 | 18.62496 | 6225 ft | 227 kts | 117° |
| 2026-05-06 12:02 | 54.33589 | 18.65264 | 7004 ft | 246 kts | 88° |
| 2026-05-06 12:02 | 54.34231 | 18.68066 | 7556 ft | 263 kts | 55° |
| 2026-05-06 12:02 | 54.35684 | 18.69999 | 7622 ft | 269 kts | 21° |
| 2026-05-06 12:02 | 54.37465 | 18.71040 | 7838 ft | 273 kts | 22° |
| 2026-05-06 12:03 | 54.39238 | 18.72263 | 7923 ft | 275 kts | 23° |
| 2026-05-06 12:03 | 54.40993 | 18.73496 | 7861 ft | 273 kts | 23° |
| 2026-05-06 12:03 | 54.42760 | 18.74745 | 7829 ft | 275 kts | 24° |
| 2026-05-06 12:03 | 54.44547 | 18.75981 | 7866 ft | 284 kts | 17° |
| 2026-05-06 12:04 | 54.46528 | 18.76273 | 8561 ft | 293 kts | 348° |
| 2026-05-06 12:04 | 54.48424 | 18.74981 | 9223 ft | 297 kts | 318° |
| 2026-05-06 12:04 | 54.49765 | 18.72341 | 10018 ft | 292 kts | 292° |
| 2026-05-06 12:04 | 54.50600 | 18.69096 | 10602 ft | 304 kts | 287° |
| 2026-05-06 12:05 | 54.51444 | 18.65683 | 11170 ft | 317 kts | 287° |
| 2026-05-06 12:05 | 54.52314 | 18.62116 | 11857 ft | 325 kts | 287° |
| 2026-05-06 12:05 | 54.53178 | 18.58537 | 12745 ft | 326 kts | 287° |
| 2026-05-06 12:05 | 54.54050 | 18.54908 | 13603 ft | 328 kts | 287° |
| 2026-05-06 12:06 | 54.54928 | 18.51241 | 14257 ft | 335 kts | 287° |
| 2026-05-06 12:06 | 54.55819 | 18.47512 | 14922 ft | 338 kts | 287° |
| 2026-05-06 12:06 | 54.56719 | 18.43734 | 15596 ft | 342 kts | 287° |
| 2026-05-06 12:06 | 54.57627 | 18.39919 | 16248 ft | 346 kts | 287° |
| 2026-05-06 12:07 | 54.58543 | 18.36061 | 16893 ft | 349 kts | 287° |
| 2026-05-06 12:07 | 54.59466 | 18.32166 | 17525 ft | 353 kts | 288° |
| 2026-05-06 12:07 | 54.60398 | 18.28229 | 18133 ft | 356 kts | 288° |
| 2026-05-06 12:07 | 54.61331 | 18.24271 | 18666 ft | 360 kts | 287° |
| 2026-05-06 12:08 | 54.62277 | 18.20257 | 19212 ft | 363 kts | 287° |
| 2026-05-06 12:08 | 54.63235 | 18.16203 | 19750 ft | 366 kts | 289° |
| 2026-05-06 12:08 | 54.64611 | 18.12440 | 20302 ft | 377 kts | 306° |
| 2026-05-06 12:08 | 54.66335 | 18.09001 | 20800 ft | 381 kts | 306° |
| 2026-05-06 12:09 | 54.68076 | 18.05496 | 21328 ft | 385 kts | 306° |
| 2026-05-06 12:09 | 54.69836 | 18.01982 | 21850 ft | 388 kts | 307° |
| 2026-05-06 12:09 | 54.71612 | 17.98446 | 22360 ft | 391 kts | 307° |
| 2026-05-06 12:09 | 54.73401 | 17.94887 | 22856 ft | 394 kts | 307° |
| 2026-05-06 12:10 | 54.75207 | 17.91291 | 23372 ft | 397 kts | 307° |
| 2026-05-06 12:10 | 54.77021 | 17.87674 | 23806 ft | 400 kts | 307° |
| 2026-05-06 12:10 | 54.78888 | 17.84145 | 24237 ft | 406 kts | 315° |
| 2026-05-06 12:10 | 54.81304 | 17.81427 | 24741 ft | 414 kts | 332° |
| 2026-05-06 12:11 | 54.83924 | 17.79306 | 25160 ft | 418 kts | 332° |
| 2026-05-06 12:11 | 54.86538 | 17.77198 | 25600 ft | 420 kts | 332° |
| 2026-05-06 12:11 | 54.89232 | 17.75052 | 26045 ft | 423 kts | 333° |
| 2026-05-06 12:11 | 54.91923 | 17.72923 | 26478 ft | 426 kts | 333° |
| 2026-05-06 12:12 | 54.94591 | 17.70813 | 26908 ft | 428 kts | 333° |
| 2026-05-06 12:12 | 54.97307 | 17.68682 | 27300 ft | 432 kts | 334° |
| 2026-05-06 12:12 | 55.00079 | 17.66577 | 27640 ft | 437 kts | 334° |
| 2026-05-06 12:12 | 55.02875 | 17.64445 | 28003 ft | 440 kts | 335° |
| 2026-05-06 12:13 | 55.05686 | 17.62293 | 28424 ft | 443 kts | 335° |
| 2026-05-06 12:13 | 55.08510 | 17.60129 | 28819 ft | 445 kts | 335° |
| 2026-05-06 12:13 | 55.11351 | 17.57947 | 29233 ft | 447 kts | 335° |
| 2026-05-06 12:13 | 55.14213 | 17.55746 | 29538 ft | 451 kts | 335° |
| 2026-05-06 12:14 | 55.17088 | 17.53530 | 29874 ft | 454 kts | 335° |
| 2026-05-06 12:14 | 55.19992 | 17.51288 | 30187 ft | 457 kts | 335° |
| 2026-05-06 12:14 | 55.22880 | 17.49000 | 30585 ft | 457 kts | 334° |
| 2026-05-06 12:14 | 55.25785 | 17.46688 | 30921 ft | 458 kts | 334° |
| 2026-05-06 12:15 | 55.28689 | 17.44381 | 31199 ft | 462 kts | 334° |
| 2026-05-06 12:15 | 55.31628 | 17.42043 | 31509 ft | 463 kts | 334° |
| 2026-05-06 12:15 | 55.34565 | 17.39701 | 31791 ft | 466 kts | 334° |
| 2026-05-06 12:15 | 55.37529 | 17.37334 | 32131 ft | 467 kts | 334° |
| 2026-05-06 12:16 | 55.40477 | 17.34977 | 32563 ft | 466 kts | 334° |
| 2026-05-06 12:16 | 55.43418 | 17.32622 | 32979 ft | 465 kts | 333° |
| 2026-05-06 12:16 | 55.46357 | 17.30264 | 33384 ft | 464 kts | 333° |
| 2026-05-06 12:16 | 55.49293 | 17.27904 | 33781 ft | 463 kts | 333° |
| 2026-05-06 12:17 | 55.52224 | 17.25544 | 33938 ft | 465 kts | 333° |
| 2026-05-06 12:17 | 55.55157 | 17.23180 | 33915 ft | 462 kts | 333° |
| 2026-05-06 12:17 | 55.60993 | 17.18465 | 33911 ft | 461 kts | 333° |
| 2026-05-06 12:18 | 55.66745 | 17.13457 | 33917 ft | 462 kts | 330° |
| 2026-05-06 12:18 | 55.72482 | 17.08287 | 33915 ft | 463 kts | 330° |
| 2026-05-06 12:19 | 55.78218 | 17.03123 | 33926 ft | 462 kts | 330° |
| 2026-05-06 12:19 | 55.83949 | 16.97949 | 33923 ft | 462 kts | 330° |
| 2026-05-06 12:20 | 55.89638 | 16.92795 | 33926 ft | 462 kts | 330° |
| 2026-05-06 12:20 | 55.95361 | 16.87593 | 33934 ft | 462 kts | 329° |
| 2026-05-06 12:21 | 56.01125 | 16.82336 | 33925 ft | 462 kts | 329° |
| 2026-05-06 12:21 | 56.06803 | 16.77140 | 33933 ft | 462 kts | 329° |
| 2026-05-06 12:22 | 56.12515 | 16.71896 | 33935 ft | 462 kts | 329° |
| 2026-05-06 12:22 | 56.18237 | 16.66625 | 33938 ft | 462 kts | 329° |
| 2026-05-06 12:23 | 56.23950 | 16.61344 | 33940 ft | 462 kts | 329° |
| 2026-05-06 12:23 | 56.29658 | 16.56050 | 33951 ft | 461 kts | 328° |
| 2026-05-06 12:24 | 56.35336 | 16.50766 | 33957 ft | 460 kts | 328° |
| 2026-05-06 12:24 | 56.41020 | 16.45459 | 33962 ft | 460 kts | 328° |
| 2026-05-06 12:25 | 56.46699 | 16.40138 | 33956 ft | 460 kts | 328° |
| 2026-05-06 12:25 | 56.52376 | 16.34802 | 33969 ft | 460 kts | 328° |
| 2026-05-06 12:26 | 56.58036 | 16.29462 | 33966 ft | 459 kts | 328° |
| 2026-05-06 12:26 | 56.63711 | 16.24091 | 33968 ft | 460 kts | 328° |
| 2026-05-06 12:27 | 56.69377 | 16.18710 | 33965 ft | 460 kts | 328° |
| 2026-05-06 12:27 | 56.75050 | 16.13304 | 33966 ft | 460 kts | 327° |
| 2026-05-06 12:28 | 56.80702 | 16.07899 | 33966 ft | 460 kts | 327° |
| 2026-05-06 12:28 | 56.86363 | 16.02466 | 33966 ft | 460 kts | 327° |
| 2026-05-06 12:29 | 56.92034 | 15.97006 | 33984 ft | 461 kts | 326° |
| 2026-05-06 12:29 | 56.97700 | 15.91531 | 33963 ft | 461 kts | 326° |
| 2026-05-06 12:30 | 57.02413 | 15.86963 | 33955 ft | 461 kts | 326° |
| 2026-05-06 12:30 | 57.08074 | 15.81459 | 33971 ft | 461 kts | 326° |
| 2026-05-06 12:31 | 57.13744 | 15.75927 | 33949 ft | 461 kts | 326° |
| 2026-05-06 12:31 | 57.19404 | 15.70384 | 33965 ft | 461 kts | 326° |
| 2026-05-06 12:32 | 57.25063 | 15.64823 | 33979 ft | 461 kts | 325° |
| 2026-05-06 12:32 | 57.30701 | 15.59264 | 33960 ft | 459 kts | 325° |
| 2026-05-06 12:33 | 57.36328 | 15.53697 | 33957 ft | 459 kts | 325° |
| 2026-05-06 12:33 | 57.41956 | 15.48108 | 33945 ft | 458 kts | 325° |
| 2026-05-06 12:34 | 57.47561 | 15.42523 | 33951 ft | 459 kts | 324° |
| 2026-05-06 12:34 | 57.53183 | 15.36901 | 33948 ft | 458 kts | 324° |
| 2026-05-06 12:35 | 57.58751 | 15.31314 | 33945 ft | 456 kts | 324° |
| 2026-05-06 12:35 | 57.64363 | 15.25662 | 33941 ft | 456 kts | 324° |
| 2026-05-06 12:36 | 57.69847 | 15.20120 | 33959 ft | 446 kts | 323° |
| 2026-05-06 12:36 | 57.75326 | 15.14564 | 33939 ft | 445 kts | 323° |
| 2026-05-06 12:37 | 57.80734 | 15.09061 | 33946 ft | 445 kts | 323° |
| 2026-05-06 12:37 | 57.86171 | 15.03509 | 33942 ft | 445 kts | 323° |
| 2026-05-06 12:38 | 57.91607 | 14.97939 | 33942 ft | 446 kts | 323° |
| 2026-05-06 12:38 | 57.97040 | 14.92352 | 33942 ft | 445 kts | 323° |
| 2026-05-06 12:39 | 58.02479 | 14.86741 | 33951 ft | 445 kts | 323° |
| 2026-05-06 12:39 | 58.07909 | 14.81118 | 33946 ft | 444 kts | 322° |
| 2026-05-06 12:40 | 58.13314 | 14.75503 | 33944 ft | 444 kts | 322° |
| 2026-05-06 12:40 | 58.18727 | 14.69858 | 33989 ft | 444 kts | 322° |
| 2026-05-06 12:41 | 58.24113 | 14.64223 | 33951 ft | 442 kts | 321° |
| 2026-05-06 12:41 | 58.29496 | 14.58571 | 33953 ft | 442 kts | 321° |
| 2026-05-06 12:42 | 58.34864 | 14.52915 | 33954 ft | 442 kts | 321° |
| 2026-05-06 12:42 | 58.40236 | 14.47234 | 33966 ft | 442 kts | 321° |
| 2026-05-06 12:43 | 58.45603 | 14.41539 | 33967 ft | 442 kts | 321° |
| 2026-05-06 12:43 | 58.50943 | 14.35852 | 33970 ft | 442 kts | 321° |
| 2026-05-06 12:44 | 58.56297 | 14.30131 | 33966 ft | 441 kts | 321° |
| 2026-05-06 12:44 | 58.61690 | 14.24348 | 33967 ft | 442 kts | 321° |
| 2026-05-06 12:45 | 58.67046 | 14.18584 | 33961 ft | 441 kts | 321° |
| 2026-05-06 12:46 | 58.75029 | 14.09954 | 33959 ft | 441 kts | 321° |
| 2026-05-06 12:46 | 58.80370 | 14.04155 | 33960 ft | 441 kts | 321° |
| 2026-05-06 12:47 | 58.85704 | 13.98342 | 34038 ft | 437 kts | 321° |
| 2026-05-06 12:47 | 58.90987 | 13.92566 | 33970 ft | 435 kts | 321° |
| 2026-05-06 12:48 | 58.96242 | 13.86798 | 33963 ft | 435 kts | 321° |
| 2026-05-06 12:48 | 59.01495 | 13.81017 | 33965 ft | 425 kts | 321° |
| 2026-05-06 12:48 | 59.04025 | 13.78226 | 33741 ft | 414 kts | 320° |
| 2026-05-06 12:49 | 59.06522 | 13.75459 | 33200 ft | 412 kts | 320° |
| 2026-05-06 12:49 | 59.09004 | 13.72708 | 32603 ft | 412 kts | 320° |
| 2026-05-06 12:49 | 59.11485 | 13.69956 | 32091 ft | 409 kts | 320° |
| 2026-05-06 12:49 | 59.13947 | 13.67222 | 31653 ft | 405 kts | 320° |
| 2026-05-06 12:50 | 59.16380 | 13.64514 | 31212 ft | 401 kts | 319° |
| 2026-05-06 12:50 | 59.18786 | 13.61833 | 30804 ft | 398 kts | 319° |
| 2026-05-06 12:50 | 59.21192 | 13.59149 | 30328 ft | 397 kts | 319° |
| 2026-05-06 12:50 | 59.23578 | 13.56482 | 29877 ft | 394 kts | 319° |
| 2026-05-06 12:51 | 59.25949 | 13.53828 | 29352 ft | 391 kts | 319° |
| 2026-05-06 12:51 | 59.28294 | 13.51198 | 28927 ft | 386 kts | 319° |
| 2026-05-06 12:51 | 59.30582 | 13.48628 | 28522 ft | 382 kts | 319° |
| 2026-05-06 12:51 | 59.32870 | 13.46055 | 28113 ft | 377 kts | 319° |
| 2026-05-06 12:52 | 59.35135 | 13.43502 | 27707 ft | 373 kts | 319° |
| 2026-05-06 12:52 | 59.37365 | 13.40986 | 27318 ft | 369 kts | 319° |
| 2026-05-06 12:52 | 59.39577 | 13.38486 | 26929 ft | 366 kts | 319° |
| 2026-05-06 12:52 | 59.41766 | 13.36009 | 26547 ft | 362 kts | 319° |
| 2026-05-06 12:53 | 59.43943 | 13.33546 | 26159 ft | 359 kts | 320° |
| 2026-05-06 12:53 | 59.46112 | 13.31125 | 25743 ft | 358 kts | 320° |
| 2026-05-06 12:53 | 59.48265 | 13.28728 | 25403 ft | 354 kts | 320° |
| 2026-05-06 12:53 | 59.50391 | 13.26342 | 25091 ft | 349 kts | 317° |
| 2026-05-06 12:54 | 59.52295 | 13.23494 | 24506 ft | 340 kts | 307° |
| 2026-05-06 12:54 | 59.54078 | 13.20388 | 24007 ft | 344 kts | 309° |
| 2026-05-06 12:54 | 59.55888 | 13.17314 | 23639 ft | 341 kts | 309° |
| 2026-05-06 12:54 | 59.57674 | 13.14294 | 23222 ft | 338 kts | 310° |
| 2026-05-06 12:55 | 59.59454 | 13.11290 | 22826 ft | 335 kts | 310° |
| 2026-05-06 12:55 | 59.61214 | 13.08318 | 22464 ft | 332 kts | 310° |
| 2026-05-06 12:55 | 59.62956 | 13.05372 | 22080 ft | 328 kts | 310° |
| 2026-05-06 12:55 | 59.64680 | 13.02455 | 21743 ft | 324 kts | 310° |
| 2026-05-06 12:56 | 59.66379 | 12.99575 | 21406 ft | 320 kts | 310° |
| 2026-05-06 12:56 | 59.68060 | 12.96723 | 21075 ft | 316 kts | 310° |
| 2026-05-06 12:56 | 59.69717 | 12.93907 | 20733 ft | 312 kts | 310° |
| 2026-05-06 12:56 | 59.71359 | 12.91114 | 20406 ft | 309 kts | 310° |
| 2026-05-06 12:57 | 59.72976 | 12.88358 | 20080 ft | 306 kts | 310° |
| 2026-05-06 12:57 | 59.74578 | 12.85624 | 19760 ft | 302 kts | 310° |
| 2026-05-06 12:57 | 59.76165 | 12.82913 | 19453 ft | 299 kts | 310° |
| 2026-05-06 12:57 | 59.77733 | 12.80233 | 19140 ft | 296 kts | 311° |
| 2026-05-06 12:58 | 59.79279 | 12.77585 | 18816 ft | 293 kts | 311° |
| 2026-05-06 12:58 | 59.80817 | 12.74948 | 18524 ft | 290 kts | 311° |
| 2026-05-06 12:58 | 59.82336 | 12.72340 | 18221 ft | 287 kts | 311° |
| 2026-05-06 12:58 | 59.83838 | 12.69758 | 17875 ft | 283 kts | 311° |
| 2026-05-06 12:59 | 59.85316 | 12.67214 | 17600 ft | 279 kts | 311° |
| 2026-05-06 12:59 | 59.86757 | 12.64730 | 17283 ft | 277 kts | 311° |
| 2026-05-06 12:59 | 59.88223 | 12.62200 | 16962 ft | 282 kts | 311° |
| 2026-05-06 12:59 | 59.89714 | 12.59624 | 16663 ft | 286 kts | 311° |
| 2026-05-06 13:00 | 59.91239 | 12.56987 | 16363 ft | 287 kts | 311° |
| 2026-05-06 13:00 | 59.92724 | 12.54415 | 16076 ft | 287 kts | 312° |
| 2026-05-06 13:00 | 59.94229 | 12.51807 | 15771 ft | 286 kts | 312° |
| 2026-05-06 13:00 | 59.95725 | 12.49213 | 15467 ft | 285 kts | 312° |
| 2026-05-06 13:01 | 59.97221 | 12.46611 | 15175 ft | 284 kts | 312° |
| 2026-05-06 13:01 | 59.98701 | 12.44036 | 14888 ft | 284 kts | 313° |
| 2026-05-06 13:01 | 60.00187 | 12.41446 | 14581 ft | 284 kts | 313° |
| 2026-05-06 13:01 | 60.01673 | 12.38854 | 14280 ft | 284 kts | 313° |
| 2026-05-06 13:02 | 60.03159 | 12.36258 | 13975 ft | 283 kts | 313° |
| 2026-05-06 13:02 | 60.04641 | 12.33667 | 13657 ft | 283 kts | 313° |
| 2026-05-06 13:02 | 60.06120 | 12.31076 | 13334 ft | 282 kts | 313° |
| 2026-05-06 13:02 | 60.07594 | 12.28492 | 13033 ft | 282 kts | 314° |
| 2026-05-06 13:03 | 60.09066 | 12.25908 | 12723 ft | 281 kts | 314° |
| 2026-05-06 13:03 | 60.10535 | 12.23325 | 12427 ft | 281 kts | 314° |
| 2026-05-06 13:03 | 60.12007 | 12.20735 | 12133 ft | 281 kts | 314° |
| 2026-05-06 13:03 | 60.13470 | 12.18156 | 11826 ft | 281 kts | 314° |
| 2026-05-06 13:04 | 60.14934 | 12.15573 | 11537 ft | 280 kts | 314° |
| 2026-05-06 13:04 | 60.16394 | 12.12995 | 11226 ft | 280 kts | 314° |
| 2026-05-06 13:04 | 60.17854 | 12.10413 | 10949 ft | 280 kts | 314° |
| 2026-05-06 13:04 | 60.19317 | 12.07825 | 10657 ft | 279 kts | 314° |
| 2026-05-06 13:05 | 60.20768 | 12.05251 | 10406 ft | 276 kts | 315° |
| 2026-05-06 13:05 | 60.22183 | 12.02740 | 10270 ft | 268 kts | 315° |
| 2026-05-06 13:05 | 60.23556 | 12.00299 | 10122 ft | 259 kts | 315° |
| 2026-05-06 13:05 | 60.24888 | 11.97930 | 10025 ft | 250 kts | 315° |
| 2026-05-06 13:06 | 60.26142 | 11.95586 | 9937 ft | 243 kts | 306° |
| 2026-05-06 13:06 | 60.27050 | 11.92748 | 9725 ft | 241 kts | 297° |
| 2026-05-06 13:06 | 60.27905 | 11.89812 | 9468 ft | 243 kts | 297° |
| 2026-05-06 13:06 | 60.28760 | 11.86875 | 9207 ft | 243 kts | 297° |
| 2026-05-06 13:07 | 60.29611 | 11.83941 | 8982 ft | 242 kts | 297° |
| 2026-05-06 13:07 | 60.30456 | 11.81024 | 8752 ft | 241 kts | 298° |
| 2026-05-06 13:07 | 60.31300 | 11.78104 | 8548 ft | 240 kts | 298° |
| 2026-05-06 13:07 | 60.32134 | 11.75216 | 8336 ft | 240 kts | 298° |
| 2026-05-06 13:08 | 60.32968 | 11.72324 | 8128 ft | 239 kts | 298° |
| 2026-05-06 13:08 | 60.33791 | 11.69463 | 7941 ft | 233 kts | 298° |
| 2026-05-06 13:08 | 60.34598 | 11.66657 | 7705 ft | 229 kts | 298° |
| 2026-05-06 13:08 | 60.35383 | 11.63922 | 7488 ft | 229 kts | 298° |
| 2026-05-06 13:09 | 60.36190 | 11.61109 | 7306 ft | 229 kts | 298° |
| 2026-05-06 13:09 | 60.36989 | 11.58321 | 7093 ft | 230 kts | 298° |
| 2026-05-06 13:09 | 60.37789 | 11.55524 | 6865 ft | 228 kts | 298° |
| 2026-05-06 13:09 | 60.38578 | 11.52758 | 6605 ft | 227 kts | 297° |
| 2026-05-06 13:10 | 60.39352 | 11.50050 | 6360 ft | 223 kts | 298° |
| 2026-05-06 13:10 | 60.40129 | 11.47324 | 6133 ft | 220 kts | 298° |
| 2026-05-06 13:10 | 60.40889 | 11.44660 | 5852 ft | 218 kts | 298° |
| 2026-05-06 13:10 | 60.41620 | 11.41994 | 5590 ft | 214 kts | 291° |
| 2026-05-06 13:11 | 60.41787 | 11.39078 | 5343 ft | 207 kts | 262° |
| 2026-05-06 13:11 | 60.41521 | 11.36312 | 5182 ft | 202 kts | 258° |
| 2026-05-06 13:11 | 60.41224 | 11.33544 | 4938 ft | 201 kts | 258° |
| 2026-05-06 13:11 | 60.40911 | 11.30800 | 4729 ft | 199 kts | 257° |
| 2026-05-06 13:12 | 60.40585 | 11.28040 | 4498 ft | 199 kts | 257° |
| 2026-05-06 13:12 | 60.40149 | 11.25455 | 4215 ft | 199 kts | 237° |
| 2026-05-06 13:12 | 60.39110 | 11.23643 | 3932 ft | 201 kts | 207° |
| 2026-05-06 13:12 | 60.37795 | 11.22703 | 3698 ft | 199 kts | 201° |
| 2026-05-06 13:13 | 60.36504 | 11.21834 | 3542 ft | 194 kts | 201° |
| 2026-05-06 13:13 | 60.35221 | 11.21034 | 3511 ft | 193 kts | 200° |
| 2026-05-06 13:13 | 60.33958 | 11.20295 | 3464 ft | 185 kts | 200° |
| 2026-05-06 13:13 | 60.32731 | 11.19578 | 3279 ft | 178 kts | 200° |
| 2026-05-06 13:14 | 60.31602 | 11.18910 | 3082 ft | 163 kts | 199° |
| 2026-05-06 13:14 | 60.30557 | 11.18305 | 2945 ft | 153 kts | 200° |
| 2026-05-06 13:14 | 60.29531 | 11.17722 | 2699 ft | 152 kts | 199° |
| 2026-05-06 13:14 | 60.28528 | 11.17125 | 2488 ft | 147 kts | 202° |
| 2026-05-06 13:15 | 60.27562 | 11.16552 | 2308 ft | 143 kts | 198° |
| 2026-05-06 13:15 | 60.26614 | 11.16016 | 2109 ft | 141 kts | 199° |
| 2026-05-06 13:15 | 60.25682 | 11.15473 | 1881 ft | 139 kts | 198° |
| 2026-05-06 13:15 | 60.24753 | 11.14928 | 1691 ft | 140 kts | 197° |
| 2026-05-06 13:16 | 60.23814 | 11.14387 | 1500 ft | 141 kts | 197° |
| 2026-05-06 13:16 | 60.22872 | 11.13841 | 1302 ft | 141 kts | 197° |
| 2026-05-06 13:16 | 60.21937 | 11.13295 | 1099 ft | 140 kts | 195° |
| 2026-05-06 13:16 | 60.21008 | 11.12768 | 905 ft | 138 kts | 195° |
| 2026-05-06 13:17 | 60.20091 | 11.12233 | 729 ft | 136 kts | 195° |
| 2026-05-06 13:17 | 60.19247 | 11.11750 | 685 ft | 113 kts | 195° |
| 2026-05-06 13:17 | 60.18696 | 11.11425 | 686 ft | 58 kts | 197° |
| 2026-05-06 13:17 | 60.18398 | 11.11253 | 684 ft | 28 kts | 195° |
| 2026-05-06 13:18 | 60.18210 | 11.11140 | 685 ft | 29 kts | 204° |
| 2026-05-06 13:18 | 60.18054 | 11.10941 | 684 ft | 19 kts | 230° |
| 2026-05-06 13:18 | 60.18045 | 11.10767 | 679 ft | 13 kts | 284° |
| 2026-05-06 13:18 | 60.18068 | 11.10670 | 679 ft | 2 kts | 349° |
| 2026-05-06 13:19 | 60.18106 | 11.10691 | 679 ft | 12 kts | 15° |
| 2026-05-06 13:19 | 60.18202 | 11.10746 | 680 ft | 16 kts | 16° |
| 2026-05-06 13:19 | 60.18311 | 11.10810 | 682 ft | 17 kts | 16° |
| 2026-05-06 13:19 | 60.18389 | 11.10856 | 680 ft | 18 kts | 16° |
| 2026-05-06 13:20 | 60.18512 | 11.10925 | 683 ft | 19 kts | 16° |
| 2026-05-06 13:20 | 60.18646 | 11.11003 | 685 ft | 21 kts | 16° |
| 2026-05-06 13:20 | 60.18793 | 11.11087 | 683 ft | 23 kts | 16° |
| 2026-05-06 13:20 | 60.18954 | 11.11181 | 683 ft | 25 kts | 15° |
| 2026-05-06 13:21 | 60.19095 | 11.11258 | 682 ft | 11 kts | 5° |
| 2026-05-06 13:21 | 60.19132 | 11.11186 | 685 ft | 8 kts | 289° |
| 2026-05-06 13:21 | 60.19149 | 11.11075 | 681 ft | 9 kts | 286° |
| 2026-05-06 13:21 | 60.19170 | 11.10926 | 683 ft | 12 kts | 286° |
| 2026-05-06 13:22 | 60.19196 | 11.10745 | 684 ft | 13 kts | 285° |
| 2026-05-06 13:22 | 60.19221 | 11.10688 | 685 ft | 6 kts | 321° |
| 2026-05-06 13:22 | 60.19239 | 11.10606 | 683 ft | 8 kts | 286° |
| 2026-05-06 13:22 | 60.19256 | 11.10485 | 686 ft | 10 kts | 286° |
| 2026-05-06 13:23 | 60.19275 | 11.10358 | 687 ft | 6 kts | 287° |
| 2026-05-06 13:23 | 60.19291 | 11.10320 | 687 ft | 3 kts | 348° |
| 2026-05-06 13:23 | 60.19310 | 11.10330 | 687 ft | 0 kts | 17° |
| 2026-05-06 13:23 | 60.19323 | 11.10337 | 687 ft | 3 kts | 17° |
| 2026-05-06 13:24 | 60.19331 | 11.10342 | 687 ft | 0 kts | 16° |